sensor_id;sensor_type;location;lat;lon;timestamp;P1;durP1;ratioP1;P2;durP2;ratioP2
2748;SDS011;1382;52.142;11.618;2023-04-12T00:00:35;3.43;;;2.17;;
2748;SDS011;1382;52.142;11.618;2023-04-12T00:03:04;4.70;;;2.53;;
2748;SDS011;1382;52.142;11.618;2023-04-12T00:05:31;2.43;;;1.67;;
2748;SDS011;1382;52.142;11.618;2023-04-12T00:07:58;3.57;;;2.27;;
2748;SDS011;1382;52.142;11.618;2023-04-12T00:10:25;6.17;;;3.20;;
2748;SDS011;1382;52.142;11.618;2023-04-12T00:12:52;3.53;;;2.23;;
2748;SDS011;1382;52.142;11.618;2023-04-12T00:15:18;5.23;;;2.00;;
2748;SDS011;1382;52.142;11.618;2023-04-12T00:17:46;8.63;;;2.73;;
2748;SDS011;1382;52.142;11.618;2023-04-12T00:20:13;7.00;;;2.20;;
2748;SDS011;1382;52.142;11.618;2023-04-12T00:22:40;6.13;;;2.40;;
2748;SDS011;1382;52.142;11.618;2023-04-12T00:25:07;3.10;;;2.33;;
2748;SDS011;1382;52.142;11.618;2023-04-12T00:27:34;5.23;;;2.57;;
2748;SDS011;1382;52.142;11.618;2023-04-12T00:30:01;3.90;;;1.70;;
2748;SDS011;1382;52.142;11.618;2023-04-12T00:32:28;3.60;;;2.47;;
2748;SDS011;1382;52.142;11.618;2023-04-12T00:34:56;5.33;;;1.80;;
2748;SDS011;1382;52.142;11.618;2023-04-12T00:37:23;3.27;;;2.30;;
2748;SDS011;1382;52.142;11.618;2023-04-12T00:39:50;3.30;;;2.00;;
2748;SDS011;1382;52.142;11.618;2023-04-12T00:42:16;8.47;;;2.00;;
2748;SDS011;1382;52.142;11.618;2023-04-12T00:44:43;3.93;;;1.90;;
2748;SDS011;1382;52.142;11.618;2023-04-12T00:47:10;3.90;;;2.23;;
2748;SDS011;1382;52.142;11.618;2023-04-12T00:49:37;2.80;;;2.10;;
2748;SDS011;1382;52.142;11.618;2023-04-12T00:52:06;1.93;;;1.70;;
2748;SDS011;1382;52.142;11.618;2023-04-12T00:54:33;5.70;;;3.23;;
2748;SDS011;1382;52.142;11.618;2023-04-12T00:57:00;5.40;;;2.13;;
2748;SDS011;1382;52.142;11.618;2023-04-12T00:59:28;11.43;;;2.40;;
2748;SDS011;1382;52.142;11.618;2023-04-12T01:01:55;3.43;;;2.50;;
2748;SDS011;1382;52.142;11.618;2023-04-12T01:04:24;7.20;;;3.23;;
2748;SDS011;1382;52.142;11.618;2023-04-12T01:06:57;9.53;;;3.23;;
2748;SDS011;1382;52.142;11.618;2023-04-12T01:09:33;2.93;;;1.80;;
2748;SDS011;1382;52.142;11.618;2023-04-12T01:12:07;5.13;;;2.50;;
2748;SDS011;1382;52.142;11.618;2023-04-12T01:14:46;4.23;;;2.03;;
2748;SDS011;1382;52.142;11.618;2023-04-12T01:17:19;5.97;;;2.90;;
2748;SDS011;1382;52.142;11.618;2023-04-12T01:19:53;4.90;;;2.47;;
2748;SDS011;1382;52.142;11.618;2023-04-12T01:22:28;3.47;;;2.23;;
2748;SDS011;1382;52.142;11.618;2023-04-12T01:25:09;7.10;;;2.50;;
2748;SDS011;1382;52.142;11.618;2023-04-12T01:27:52;4.50;;;1.90;;
2748;SDS011;1382;52.142;11.618;2023-04-12T01:30:21;5.90;;;2.33;;
2748;SDS011;1382;52.142;11.618;2023-04-12T01:32:53;6.80;;;2.70;;
2748;SDS011;1382;52.142;11.618;2023-04-12T01:35:23;6.33;;;2.10;;
2748;SDS011;1382;52.142;11.618;2023-04-12T01:37:53;3.13;;;1.90;;
2748;SDS011;1382;52.142;11.618;2023-04-12T01:40:22;5.37;;;1.93;;
2748;SDS011;1382;52.142;11.618;2023-04-12T01:42:51;4.67;;;2.10;;
2748;SDS011;1382;52.142;11.618;2023-04-12T01:45:28;2.63;;;2.00;;
2748;SDS011;1382;52.142;11.618;2023-04-12T01:47:55;4.50;;;2.17;;
2748;SDS011;1382;52.142;11.618;2023-04-12T01:50:24;4.33;;;3.00;;
2748;SDS011;1382;52.142;11.618;2023-04-12T01:52:57;3.83;;;2.10;;
2748;SDS011;1382;52.142;11.618;2023-04-12T01:55:28;6.37;;;2.70;;
2748;SDS011;1382;52.142;11.618;2023-04-12T01:57:57;2.73;;;2.07;;
2748;SDS011;1382;52.142;11.618;2023-04-12T02:00:27;3.63;;;2.70;;
2748;SDS011;1382;52.142;11.618;2023-04-12T02:02:55;2.47;;;1.90;;
2748;SDS011;1382;52.142;11.618;2023-04-12T02:05:22;4.40;;;2.70;;
2748;SDS011;1382;52.142;11.618;2023-04-12T02:07:50;4.30;;;2.63;;
2748;SDS011;1382;52.142;11.618;2023-04-12T02:10:26;2.93;;;2.20;;
2748;SDS011;1382;52.142;11.618;2023-04-12T02:12:53;3.93;;;2.20;;
2748;SDS011;1382;52.142;11.618;2023-04-12T02:15:21;4.83;;;2.60;;
2748;SDS011;1382;52.142;11.618;2023-04-12T02:17:48;7.60;;;2.40;;
2748;SDS011;1382;52.142;11.618;2023-04-12T02:20:15;5.07;;;2.53;;
2748;SDS011;1382;52.142;11.618;2023-04-12T02:22:42;5.30;;;2.83;;
2748;SDS011;1382;52.142;11.618;2023-04-12T02:25:09;11.97;;;3.17;;
2748;SDS011;1382;52.142;11.618;2023-04-12T02:27:36;5.20;;;2.40;;
2748;SDS011;1382;52.142;11.618;2023-04-12T02:30:03;5.60;;;3.30;;
2748;SDS011;1382;52.142;11.618;2023-04-12T02:32:31;2.50;;;2.30;;
2748;SDS011;1382;52.142;11.618;2023-04-12T02:34:58;7.00;;;3.70;;
2748;SDS011;1382;52.142;11.618;2023-04-12T02:37:25;9.00;;;2.43;;
2748;SDS011;1382;52.142;11.618;2023-04-12T02:39:51;3.33;;;2.00;;
2748;SDS011;1382;52.142;11.618;2023-04-12T02:42:18;2.60;;;1.97;;
2748;SDS011;1382;52.142;11.618;2023-04-12T02:44:45;4.67;;;2.60;;
2748;SDS011;1382;52.142;11.618;2023-04-12T02:47:12;6.73;;;2.60;;
2748;SDS011;1382;52.142;11.618;2023-04-12T02:49:40;6.00;;;3.20;;
2748;SDS011;1382;52.142;11.618;2023-04-12T02:52:07;3.67;;;2.90;;
2748;SDS011;1382;52.142;11.618;2023-04-12T02:54:34;4.73;;;1.90;;
2748;SDS011;1382;52.142;11.618;2023-04-12T02:57:00;3.47;;;2.27;;
2748;SDS011;1382;52.142;11.618;2023-04-12T02:59:27;6.90;;;3.23;;
2748;SDS011;1382;52.142;11.618;2023-04-12T03:01:54;5.40;;;2.80;;
2748;SDS011;1382;52.142;11.618;2023-04-12T03:04:21;3.07;;;2.13;;
2748;SDS011;1382;52.142;11.618;2023-04-12T03:06:49;3.40;;;2.70;;
2748;SDS011;1382;52.142;11.618;2023-04-12T03:09:16;4.27;;;2.80;;
2748;SDS011;1382;52.142;11.618;2023-04-12T03:11:42;3.60;;;2.60;;
2748;SDS011;1382;52.142;11.618;2023-04-12T03:14:10;7.73;;;3.60;;
2748;SDS011;1382;52.142;11.618;2023-04-12T03:16:37;7.33;;;3.33;;
2748;SDS011;1382;52.142;11.618;2023-04-12T03:19:03;9.20;;;3.40;;
2748;SDS011;1382;52.142;11.618;2023-04-12T03:21:30;4.40;;;2.97;;
2748;SDS011;1382;52.142;11.618;2023-04-12T03:23:58;5.70;;;2.90;;
2748;SDS011;1382;52.142;11.618;2023-04-12T03:26:25;4.90;;;2.77;;
2748;SDS011;1382;52.142;11.618;2023-04-12T03:28:53;3.73;;;3.07;;
2748;SDS011;1382;52.142;11.618;2023-04-12T03:31:23;5.20;;;3.57;;
2748;SDS011;1382;52.142;11.618;2023-04-12T03:33:50;6.47;;;3.67;;
2748;SDS011;1382;52.142;11.618;2023-04-12T03:36:17;4.03;;;2.70;;
2748;SDS011;1382;52.142;11.618;2023-04-12T03:38:44;6.43;;;3.73;;
2748;SDS011;1382;52.142;11.618;2023-04-12T03:41:12;4.77;;;3.67;;
2748;SDS011;1382;52.142;11.618;2023-04-12T03:43:39;6.57;;;3.60;;
2748;SDS011;1382;52.142;11.618;2023-04-12T03:46:06;10.03;;;5.47;;
2748;SDS011;1382;52.142;11.618;2023-04-12T03:48:33;5.97;;;3.67;;
2748;SDS011;1382;52.142;11.618;2023-04-12T03:51:00;4.90;;;3.53;;
2748;SDS011;1382;52.142;11.618;2023-04-12T03:53:27;4.53;;;3.20;;
2748;SDS011;1382;52.142;11.618;2023-04-12T03:55:53;11.23;;;3.93;;
2748;SDS011;1382;52.142;11.618;2023-04-12T03:58:22;7.93;;;4.30;;
2748;SDS011;1382;52.142;11.618;2023-04-12T04:00:48;5.87;;;4.17;;
2748;SDS011;1382;52.142;11.618;2023-04-12T04:03:15;7.07;;;3.47;;
2748;SDS011;1382;52.142;11.618;2023-04-12T04:05:43;6.13;;;4.27;;
2748;SDS011;1382;52.142;11.618;2023-04-12T04:08:09;8.63;;;4.50;;
2748;SDS011;1382;52.142;11.618;2023-04-12T04:10:36;6.60;;;4.40;;
2748;SDS011;1382;52.142;11.618;2023-04-12T04:13:03;9.43;;;6.40;;
2748;SDS011;1382;52.142;11.618;2023-04-12T04:15:31;5.50;;;4.30;;
2748;SDS011;1382;52.142;11.618;2023-04-12T04:17:58;7.40;;;4.57;;
2748;SDS011;1382;52.142;11.618;2023-04-12T04:20:24;9.83;;;4.80;;
2748;SDS011;1382;52.142;11.618;2023-04-12T04:22:53;7.13;;;5.10;;
2748;SDS011;1382;52.142;11.618;2023-04-12T04:25:19;7.00;;;5.00;;
2748;SDS011;1382;52.142;11.618;2023-04-12T04:27:46;5.83;;;4.30;;
2748;SDS011;1382;52.142;11.618;2023-04-12T04:30:13;6.03;;;3.50;;
2748;SDS011;1382;52.142;11.618;2023-04-12T04:32:41;8.83;;;5.23;;
2748;SDS011;1382;52.142;11.618;2023-04-12T04:35:08;7.73;;;5.47;;
2748;SDS011;1382;52.142;11.618;2023-04-12T04:37:34;5.73;;;4.10;;
2748;SDS011;1382;52.142;11.618;2023-04-12T04:40:01;6.40;;;4.10;;
2748;SDS011;1382;52.142;11.618;2023-04-12T04:42:28;8.03;;;5.97;;
2748;SDS011;1382;52.142;11.618;2023-04-12T04:44:55;6.80;;;3.90;;
2748;SDS011;1382;52.142;11.618;2023-04-12T04:47:22;7.27;;;4.67;;
2748;SDS011;1382;52.142;11.618;2023-04-12T04:49:50;13.53;;;5.47;;
2748;SDS011;1382;52.142;11.618;2023-04-12T04:52:16;8.03;;;4.60;;
2748;SDS011;1382;52.142;11.618;2023-04-12T04:54:43;8.73;;;5.30;;
2748;SDS011;1382;52.142;11.618;2023-04-12T04:57:10;7.53;;;5.20;;
2748;SDS011;1382;52.142;11.618;2023-04-12T04:59:37;7.87;;;4.63;;
2748;SDS011;1382;52.142;11.618;2023-04-12T05:02:04;6.13;;;4.27;;
2748;SDS011;1382;52.142;11.618;2023-04-12T05:04:30;5.60;;;4.43;;
2748;SDS011;1382;52.142;11.618;2023-04-12T05:06:59;8.90;;;4.27;;
2748;SDS011;1382;52.142;11.618;2023-04-12T05:09:25;6.13;;;4.57;;
2748;SDS011;1382;52.142;11.618;2023-04-12T05:11:52;5.27;;;4.77;;
2748;SDS011;1382;52.142;11.618;2023-04-12T05:14:19;7.10;;;4.90;;
2748;SDS011;1382;52.142;11.618;2023-04-12T05:16:48;7.87;;;4.97;;
2748;SDS011;1382;52.142;11.618;2023-04-12T05:19:15;7.03;;;3.90;;
2748;SDS011;1382;52.142;11.618;2023-04-12T05:21:42;5.70;;;3.90;;
2748;SDS011;1382;52.142;11.618;2023-04-12T05:24:10;6.60;;;4.33;;
2748;SDS011;1382;52.142;11.618;2023-04-12T05:26:36;5.83;;;4.30;;
2748;SDS011;1382;52.142;11.618;2023-04-12T05:29:03;8.60;;;5.30;;
2748;SDS011;1382;52.142;11.618;2023-04-12T05:31:30;5.60;;;4.17;;
2748;SDS011;1382;52.142;11.618;2023-04-12T05:33:56;7.53;;;5.03;;
2748;SDS011;1382;52.142;11.618;2023-04-12T05:36:23;5.37;;;4.40;;
2748;SDS011;1382;52.142;11.618;2023-04-12T05:38:50;6.60;;;5.00;;
2748;SDS011;1382;52.142;11.618;2023-04-12T05:41:18;6.37;;;4.03;;
2748;SDS011;1382;52.142;11.618;2023-04-12T05:43:45;5.27;;;4.20;;
2748;SDS011;1382;52.142;11.618;2023-04-12T05:46:12;4.87;;;3.40;;
2748;SDS011;1382;52.142;11.618;2023-04-12T05:48:38;8.33;;;4.07;;
2748;SDS011;1382;52.142;11.618;2023-04-12T05:51:10;6.47;;;3.90;;
2748;SDS011;1382;52.142;11.618;2023-04-12T05:53:37;10.20;;;3.40;;
2748;SDS011;1382;52.142;11.618;2023-04-12T05:56:04;5.87;;;3.03;;
2748;SDS011;1382;52.142;11.618;2023-04-12T05:58:33;4.47;;;3.17;;
2748;SDS011;1382;52.142;11.618;2023-04-12T06:00:59;4.87;;;3.33;;
2748;SDS011;1382;52.142;11.618;2023-04-12T06:03:26;9.50;;;3.40;;
2748;SDS011;1382;52.142;11.618;2023-04-12T06:05:53;5.60;;;2.20;;
2748;SDS011;1382;52.142;11.618;2023-04-12T06:08:20;3.43;;;2.57;;
2748;SDS011;1382;52.142;11.618;2023-04-12T06:10:47;3.57;;;2.40;;
2748;SDS011;1382;52.142;11.618;2023-04-12T06:13:14;6.97;;;3.30;;
2748;SDS011;1382;52.142;11.618;2023-04-12T06:15:42;8.20;;;3.77;;
2748;SDS011;1382;52.142;11.618;2023-04-12T06:18:09;4.83;;;3.00;;
2748;SDS011;1382;52.142;11.618;2023-04-12T06:20:37;9.63;;;2.93;;
2748;SDS011;1382;52.142;11.618;2023-04-12T06:23:04;5.57;;;2.73;;
2748;SDS011;1382;52.142;11.618;2023-04-12T06:25:31;3.60;;;3.20;;
2748;SDS011;1382;52.142;11.618;2023-04-12T06:27:58;2.70;;;2.50;;
2748;SDS011;1382;52.142;11.618;2023-04-12T06:30:25;5.60;;;2.90;;
2748;SDS011;1382;52.142;11.618;2023-04-12T06:32:53;3.10;;;1.43;;
2748;SDS011;1382;52.142;11.618;2023-04-12T06:35:20;4.40;;;2.60;;
2748;SDS011;1382;52.142;11.618;2023-04-12T06:37:47;3.93;;;2.50;;
2748;SDS011;1382;52.142;11.618;2023-04-12T06:40:14;7.50;;;2.80;;
2748;SDS011;1382;52.142;11.618;2023-04-12T06:42:41;13.40;;;4.33;;
2748;SDS011;1382;52.142;11.618;2023-04-12T06:45:07;4.00;;;2.30;;
2748;SDS011;1382;52.142;11.618;2023-04-12T06:47:35;5.63;;;2.80;;
2748;SDS011;1382;52.142;11.618;2023-04-12T06:50:03;3.53;;;1.60;;
2748;SDS011;1382;52.142;11.618;2023-04-12T06:52:30;5.47;;;2.43;;
2748;SDS011;1382;52.142;11.618;2023-04-12T06:54:57;1.23;;;1.07;;
2748;SDS011;1382;52.142;11.618;2023-04-12T06:57:24;4.43;;;2.60;;
2748;SDS011;1382;52.142;11.618;2023-04-12T06:59:51;4.70;;;2.50;;
2748;SDS011;1382;52.142;11.618;2023-04-12T07:02:18;4.77;;;2.27;;
2748;SDS011;1382;52.142;11.618;2023-04-12T07:04:45;3.23;;;2.60;;
2748;SDS011;1382;52.142;11.618;2023-04-12T07:07:13;5.10;;;2.47;;
2748;SDS011;1382;52.142;11.618;2023-04-12T07:09:40;3.63;;;1.60;;
2748;SDS011;1382;52.142;11.618;2023-04-12T07:12:06;6.57;;;2.27;;
2748;SDS011;1382;52.142;11.618;2023-04-12T07:14:33;3.70;;;2.30;;
2748;SDS011;1382;52.142;11.618;2023-04-12T07:17:00;7.93;;;2.80;;
2748;SDS011;1382;52.142;11.618;2023-04-12T07:19:27;2.83;;;2.30;;
2748;SDS011;1382;52.142;11.618;2023-04-12T07:21:54;6.20;;;2.67;;
2748;SDS011;1382;52.142;11.618;2023-04-12T07:24:22;3.77;;;2.93;;
2748;SDS011;1382;52.142;11.618;2023-04-12T07:26:49;3.80;;;2.03;;
2748;SDS011;1382;52.142;11.618;2023-04-12T07:29:18;3.33;;;2.50;;
2748;SDS011;1382;52.142;11.618;2023-04-12T07:31:44;2.50;;;1.67;;
2748;SDS011;1382;52.142;11.618;2023-04-12T07:34:11;7.60;;;3.57;;
2748;SDS011;1382;52.142;11.618;2023-04-12T07:36:38;3.43;;;1.70;;
2748;SDS011;1382;52.142;11.618;2023-04-12T07:39:05;7.70;;;2.27;;
2748;SDS011;1382;52.142;11.618;2023-04-12T07:41:33;5.20;;;2.27;;
2748;SDS011;1382;52.142;11.618;2023-04-12T07:44:00;4.00;;;1.97;;
2748;SDS011;1382;52.142;11.618;2023-04-12T07:46:26;4.20;;;2.50;;
2748;SDS011;1382;52.142;11.618;2023-04-12T07:48:53;3.10;;;2.47;;
2748;SDS011;1382;52.142;11.618;2023-04-12T07:51:20;4.53;;;2.70;;
2748;SDS011;1382;52.142;11.618;2023-04-12T07:53:47;7.93;;;3.33;;
2748;SDS011;1382;52.142;11.618;2023-04-12T07:56:14;7.53;;;3.10;;
2748;SDS011;1382;52.142;11.618;2023-04-12T07:58:42;7.40;;;2.67;;
2748;SDS011;1382;52.142;11.618;2023-04-12T08:01:10;4.83;;;2.03;;
2748;SDS011;1382;52.142;11.618;2023-04-12T08:03:37;3.20;;;2.03;;
2748;SDS011;1382;52.142;11.618;2023-04-12T08:06:04;6.43;;;2.70;;
2748;SDS011;1382;52.142;11.618;2023-04-12T08:08:32;11.00;;;3.00;;
2748;SDS011;1382;52.142;11.618;2023-04-12T08:10:59;7.00;;;2.20;;
2748;SDS011;1382;52.142;11.618;2023-04-12T08:13:25;5.93;;;2.90;;
2748;SDS011;1382;52.142;11.618;2023-04-12T08:15:54;7.10;;;2.73;;
2748;SDS011;1382;52.142;11.618;2023-04-12T08:18:20;1.30;;;1.10;;
2748;SDS011;1382;52.142;11.618;2023-04-12T08:20:47;7.43;;;3.00;;
2748;SDS011;1382;52.142;11.618;2023-04-12T08:23:14;4.93;;;2.30;;
2748;SDS011;1382;52.142;11.618;2023-04-12T08:25:41;6.40;;;2.33;;
2748;SDS011;1382;52.142;11.618;2023-04-12T08:28:07;6.67;;;3.37;;
2748;SDS011;1382;52.142;11.618;2023-04-12T08:30:34;3.57;;;2.37;;
2748;SDS011;1382;52.142;11.618;2023-04-12T08:33:03;3.00;;;2.27;;
2748;SDS011;1382;52.142;11.618;2023-04-12T08:35:30;4.10;;;2.10;;
2748;SDS011;1382;52.142;11.618;2023-04-12T08:37:56;5.07;;;2.37;;
2748;SDS011;1382;52.142;11.618;2023-04-12T08:40:23;6.53;;;2.20;;
2748;SDS011;1382;52.142;11.618;2023-04-12T08:42:50;7.90;;;2.30;;
2748;SDS011;1382;52.142;11.618;2023-04-12T08:45:18;4.60;;;2.47;;
2748;SDS011;1382;52.142;11.618;2023-04-12T08:47:46;3.60;;;2.10;;
2748;SDS011;1382;52.142;11.618;2023-04-12T08:50:14;3.53;;;2.13;;
2748;SDS011;1382;52.142;11.618;2023-04-12T08:52:41;4.90;;;2.67;;
2748;SDS011;1382;52.142;11.618;2023-04-12T08:55:08;5.37;;;2.57;;
2748;SDS011;1382;52.142;11.618;2023-04-12T08:57:35;5.23;;;2.27;;
2748;SDS011;1382;52.142;11.618;2023-04-12T09:00:06;2.90;;;2.20;;
2748;SDS011;1382;52.142;11.618;2023-04-12T09:02:34;12.53;;;1.57;;
2748;SDS011;1382;52.142;11.618;2023-04-12T09:05:01;3.97;;;2.47;;
2748;SDS011;1382;52.142;11.618;2023-04-12T09:07:30;4.87;;;2.60;;
2748;SDS011;1382;52.142;11.618;2023-04-12T09:09:57;9.60;;;3.23;;
2748;SDS011;1382;52.142;11.618;2023-04-12T09:12:24;3.23;;;2.87;;
2748;SDS011;1382;52.142;11.618;2023-04-12T09:15:03;3.53;;;2.00;;
2748;SDS011;1382;52.142;11.618;2023-04-12T09:17:31;4.57;;;2.50;;
2748;SDS011;1382;52.142;11.618;2023-04-12T09:19:58;5.30;;;2.10;;
2748;SDS011;1382;52.142;11.618;2023-04-12T09:22:33;4.47;;;2.93;;
2748;SDS011;1382;52.142;11.618;2023-04-12T09:25:01;12.17;;;2.60;;
2748;SDS011;1382;52.142;11.618;2023-04-12T09:27:28;3.63;;;2.23;;
2748;SDS011;1382;52.142;11.618;2023-04-12T09:30:05;9.43;;;3.20;;
2748;SDS011;1382;52.142;11.618;2023-04-12T09:32:32;2.90;;;2.20;;
2748;SDS011;1382;52.142;11.618;2023-04-12T09:34:59;4.20;;;2.20;;
2748;SDS011;1382;52.142;11.618;2023-04-12T09:37:27;5.67;;;2.97;;
2748;SDS011;1382;52.142;11.618;2023-04-12T09:39:59;4.80;;;2.13;;
2748;SDS011;1382;52.142;11.618;2023-04-12T09:42:26;7.83;;;1.83;;
2748;SDS011;1382;52.142;11.618;2023-04-12T09:45:00;7.53;;;3.03;;
2748;SDS011;1382;52.142;11.618;2023-04-12T09:47:43;12.43;;;3.40;;
2748;SDS011;1382;52.142;11.618;2023-04-12T09:50:10;5.00;;;2.87;;
2748;SDS011;1382;52.142;11.618;2023-04-12T09:52:45;5.00;;;2.87;;
2748;SDS011;1382;52.142;11.618;2023-04-12T09:55:13;6.33;;;3.00;;
2748;SDS011;1382;52.142;11.618;2023-04-12T09:57:41;6.70;;;2.57;;
2748;SDS011;1382;52.142;11.618;2023-04-12T10:00:10;6.00;;;3.00;;
2748;SDS011;1382;52.142;11.618;2023-04-12T10:02:38;4.93;;;2.10;;
2748;SDS011;1382;52.142;11.618;2023-04-12T10:05:10;4.70;;;3.00;;
2748;SDS011;1382;52.142;11.618;2023-04-12T10:07:38;6.33;;;2.37;;
2748;SDS011;1382;52.142;11.618;2023-04-12T10:10:06;3.80;;;2.57;;
2748;SDS011;1382;52.142;11.618;2023-04-12T10:12:35;7.00;;;2.97;;
2748;SDS011;1382;52.142;11.618;2023-04-12T10:15:02;6.77;;;2.60;;
2748;SDS011;1382;52.142;11.618;2023-04-12T10:17:30;11.63;;;3.10;;
2748;SDS011;1382;52.142;11.618;2023-04-12T10:20:00;2.43;;;1.63;;
2748;SDS011;1382;52.142;11.618;2023-04-12T10:22:27;3.60;;;2.40;;
2748;SDS011;1382;52.142;11.618;2023-04-12T10:24:54;4.53;;;1.80;;
2748;SDS011;1382;52.142;11.618;2023-04-12T10:27:24;5.27;;;2.40;;
2748;SDS011;1382;52.142;11.618;2023-04-12T10:29:52;6.20;;;2.27;;
2748;SDS011;1382;52.142;11.618;2023-04-12T10:32:20;9.83;;;2.80;;
2748;SDS011;1382;52.142;11.618;2023-04-12T10:34:51;4.03;;;2.50;;
2748;SDS011;1382;52.142;11.618;2023-04-12T10:37:19;4.40;;;1.50;;
2748;SDS011;1382;52.142;11.618;2023-04-12T10:39:50;5.27;;;2.30;;
2748;SDS011;1382;52.142;11.618;2023-04-12T10:42:19;12.70;;;2.70;;
2748;SDS011;1382;52.142;11.618;2023-04-12T10:44:47;3.03;;;1.90;;
2748;SDS011;1382;52.142;11.618;2023-04-12T10:47:16;7.20;;;2.83;;
2748;SDS011;1382;52.142;11.618;2023-04-12T10:50:21;3.30;;;1.50;;
2748;SDS011;1382;52.142;11.618;2023-04-12T10:55:47;5.73;;;1.80;;
2748;SDS011;1382;52.142;11.618;2023-04-12T11:01:14;3.20;;;2.20;;
2748;SDS011;1382;52.142;11.618;2023-04-12T11:06:41;3.93;;;1.97;;
2748;SDS011;1382;52.142;11.618;2023-04-12T11:09:15;6.07;;;2.30;;
2748;SDS011;1382;52.142;11.618;2023-04-12T11:11:43;5.43;;;2.43;;
2748;SDS011;1382;52.142;11.618;2023-04-12T11:14:09;4.00;;;2.30;;
2748;SDS011;1382;52.142;11.618;2023-04-12T11:19:38;5.73;;;2.70;;
2748;SDS011;1382;52.142;11.618;2023-04-12T11:22:07;3.77;;;1.93;;
2748;SDS011;1382;52.142;11.618;2023-04-12T11:24:36;4.33;;;2.47;;
2748;SDS011;1382;52.142;11.618;2023-04-12T11:27:03;4.73;;;2.23;;
2748;SDS011;1382;52.142;11.618;2023-04-12T11:29:30;4.90;;;2.20;;
2748;SDS011;1382;52.142;11.618;2023-04-12T11:31:57;4.40;;;2.53;;
2748;SDS011;1382;52.142;11.618;2023-04-12T11:34:24;3.20;;;2.17;;
2748;SDS011;1382;52.142;11.618;2023-04-12T11:36:53;4.57;;;2.70;;
2748;SDS011;1382;52.142;11.618;2023-04-12T11:39:20;3.00;;;2.00;;
2748;SDS011;1382;52.142;11.618;2023-04-12T11:41:47;4.77;;;2.90;;
2748;SDS011;1382;52.142;11.618;2023-04-12T11:44:14;4.53;;;2.63;;
2748;SDS011;1382;52.142;11.618;2023-04-12T11:46:41;6.20;;;2.40;;
2748;SDS011;1382;52.142;11.618;2023-04-12T11:49:08;3.57;;;2.10;;
2748;SDS011;1382;52.142;11.618;2023-04-12T11:51:35;3.67;;;2.73;;
2748;SDS011;1382;52.142;11.618;2023-04-12T11:54:03;6.00;;;2.77;;
2748;SDS011;1382;52.142;11.618;2023-04-12T11:56:30;4.07;;;2.50;;
2748;SDS011;1382;52.142;11.618;2023-04-12T11:58:57;10.70;;;3.07;;
2748;SDS011;1382;52.142;11.618;2023-04-12T12:01:24;8.27;;;3.27;;
2748;SDS011;1382;52.142;11.618;2023-04-12T12:03:51;11.23;;;4.83;;
2748;SDS011;1382;52.142;11.618;2023-04-12T12:06:18;8.30;;;3.47;;
2748;SDS011;1382;52.142;11.618;2023-04-12T12:08:46;5.13;;;2.87;;
2748;SDS011;1382;52.142;11.618;2023-04-12T12:11:15;7.07;;;2.83;;
2748;SDS011;1382;52.142;11.618;2023-04-12T12:13:42;9.20;;;3.00;;
2748;SDS011;1382;52.142;11.618;2023-04-12T12:16:10;5.60;;;3.10;;
2748;SDS011;1382;52.142;11.618;2023-04-12T12:18:38;6.40;;;2.67;;
2748;SDS011;1382;52.142;11.618;2023-04-12T12:21:12;8.50;;;2.80;;
2748;SDS011;1382;52.142;11.618;2023-04-12T12:24:23;7.63;;;3.43;;
2748;SDS011;1382;52.142;11.618;2023-04-12T12:26:51;4.83;;;3.10;;
2748;SDS011;1382;52.142;11.618;2023-04-12T12:29:18;5.07;;;2.63;;
2748;SDS011;1382;52.142;11.618;2023-04-12T12:31:45;4.33;;;2.53;;
2748;SDS011;1382;52.142;11.618;2023-04-12T12:34:12;3.57;;;2.43;;
2748;SDS011;1382;52.142;11.618;2023-04-12T12:36:39;3.87;;;2.30;;
2748;SDS011;1382;52.142;11.618;2023-04-12T12:39:06;4.63;;;2.70;;
2748;SDS011;1382;52.142;11.618;2023-04-12T12:41:33;3.93;;;2.80;;
2748;SDS011;1382;52.142;11.618;2023-04-12T12:44:02;2.33;;;2.13;;
2748;SDS011;1382;52.142;11.618;2023-04-12T12:46:29;3.80;;;2.40;;
2748;SDS011;1382;52.142;11.618;2023-04-12T12:49:16;7.43;;;3.10;;
2748;SDS011;1382;52.142;11.618;2023-04-12T12:51:42;3.87;;;2.20;;
2748;SDS011;1382;52.142;11.618;2023-04-12T12:54:09;7.30;;;2.20;;
2748;SDS011;1382;52.142;11.618;2023-04-12T12:56:36;6.00;;;2.60;;
2748;SDS011;1382;52.142;11.618;2023-04-12T12:59:04;6.63;;;2.73;;
2748;SDS011;1382;52.142;11.618;2023-04-12T13:01:31;3.20;;;2.00;;
2748;SDS011;1382;52.142;11.618;2023-04-12T13:03:58;4.33;;;2.27;;
2748;SDS011;1382;52.142;11.618;2023-04-12T13:06:25;6.13;;;2.63;;
2748;SDS011;1382;52.142;11.618;2023-04-12T13:08:51;5.57;;;3.10;;
2748;SDS011;1382;52.142;11.618;2023-04-12T13:11:18;6.43;;;2.60;;
2748;SDS011;1382;52.142;11.618;2023-04-12T13:13:45;4.57;;;2.40;;
2748;SDS011;1382;52.142;11.618;2023-04-12T13:16:13;2.53;;;1.67;;
2748;SDS011;1382;52.142;11.618;2023-04-12T13:18:40;6.10;;;2.10;;
2748;SDS011;1382;52.142;11.618;2023-04-12T13:21:07;4.07;;;2.40;;
2748;SDS011;1382;52.142;11.618;2023-04-12T13:23:34;6.00;;;2.23;;
2748;SDS011;1382;52.142;11.618;2023-04-12T13:26:01;5.93;;;2.60;;
2748;SDS011;1382;52.142;11.618;2023-04-12T13:28:28;10.20;;;2.70;;
2748;SDS011;1382;52.142;11.618;2023-04-12T13:30:54;3.57;;;2.30;;
2748;SDS011;1382;52.142;11.618;2023-04-12T13:33:23;4.13;;;3.10;;
2748;SDS011;1382;52.142;11.618;2023-04-12T13:35:49;4.27;;;2.00;;
2748;SDS011;1382;52.142;11.618;2023-04-12T13:38:16;5.53;;;2.53;;
2748;SDS011;1382;52.142;11.618;2023-04-12T13:40:43;2.93;;;2.10;;
2748;SDS011;1382;52.142;11.618;2023-04-12T13:43:10;3.30;;;2.50;;
2748;SDS011;1382;52.142;11.618;2023-04-12T13:45:37;5.43;;;2.07;;
2748;SDS011;1382;52.142;11.618;2023-04-12T13:48:04;4.57;;;2.63;;
2748;SDS011;1382;52.142;11.618;2023-04-12T13:50:32;6.70;;;2.20;;
2748;SDS011;1382;52.142;11.618;2023-04-12T13:52:59;4.30;;;2.73;;
2748;SDS011;1382;52.142;11.618;2023-04-12T13:55:26;4.13;;;2.33;;
2748;SDS011;1382;52.142;11.618;2023-04-12T13:57:52;2.60;;;2.00;;
2748;SDS011;1382;52.142;11.618;2023-04-12T14:00:19;3.80;;;2.63;;
2748;SDS011;1382;52.142;11.618;2023-04-12T14:02:46;3.20;;;2.07;;
2748;SDS011;1382;52.142;11.618;2023-04-12T14:05:13;8.70;;;2.90;;
2748;SDS011;1382;52.142;11.618;2023-04-12T14:07:41;4.87;;;2.60;;
2748;SDS011;1382;52.142;11.618;2023-04-12T14:10:08;4.53;;;2.30;;
2748;SDS011;1382;52.142;11.618;2023-04-12T14:12:35;2.17;;;1.90;;
2748;SDS011;1382;52.142;11.618;2023-04-12T14:15:02;3.00;;;2.23;;
2748;SDS011;1382;52.142;11.618;2023-04-12T14:17:30;1.93;;;1.53;;
2748;SDS011;1382;52.142;11.618;2023-04-12T14:19:57;5.30;;;2.67;;
2748;SDS011;1382;52.142;11.618;2023-04-12T14:22:23;3.67;;;2.57;;
2748;SDS011;1382;52.142;11.618;2023-04-12T14:24:52;6.60;;;2.27;;
2748;SDS011;1382;52.142;11.618;2023-04-12T14:27:18;4.93;;;2.20;;
2748;SDS011;1382;52.142;11.618;2023-04-12T14:29:45;2.67;;;1.70;;
2748;SDS011;1382;52.142;11.618;2023-04-12T14:32:12;4.33;;;2.30;;
2748;SDS011;1382;52.142;11.618;2023-04-12T14:34:39;4.17;;;1.53;;
2748;SDS011;1382;52.142;11.618;2023-04-12T14:37:05;4.97;;;1.53;;
2748;SDS011;1382;52.142;11.618;2023-04-12T14:39:32;1.60;;;1.40;;
2748;SDS011;1382;52.142;11.618;2023-04-12T14:42:00;2.30;;;1.80;;
2748;SDS011;1382;52.142;11.618;2023-04-12T14:44:27;3.00;;;1.50;;
2748;SDS011;1382;52.142;11.618;2023-04-12T14:46:54;4.13;;;2.27;;
2748;SDS011;1382;52.142;11.618;2023-04-12T14:49:21;4.27;;;2.30;;
2748;SDS011;1382;52.142;11.618;2023-04-12T14:51:47;2.50;;;1.73;;
2748;SDS011;1382;52.142;11.618;2023-04-12T14:54:14;4.27;;;1.97;;
2748;SDS011;1382;52.142;11.618;2023-04-12T14:56:41;3.43;;;2.10;;
2748;SDS011;1382;52.142;11.618;2023-04-12T14:59:19;3.30;;;1.40;;
2748;SDS011;1382;52.142;11.618;2023-04-12T15:01:45;2.53;;;2.23;;
2748;SDS011;1382;52.142;11.618;2023-04-12T15:04:12;4.37;;;2.60;;
2748;SDS011;1382;52.142;11.618;2023-04-12T15:06:39;5.93;;;2.40;;
2748;SDS011;1382;52.142;11.618;2023-04-12T15:09:06;2.43;;;1.70;;
2748;SDS011;1382;52.142;11.618;2023-04-12T15:11:33;2.70;;;1.63;;
2748;SDS011;1382;52.142;11.618;2023-04-12T15:14:00;3.67;;;2.00;;
2748;SDS011;1382;52.142;11.618;2023-04-12T15:16:28;4.73;;;2.07;;